sensor_id;sensor_type;location;lat;lon;timestamp;P1;durP1;ratioP1;P2;durP2;ratioP2
47545;SDS011;50104;52.002;4.688;2023-04-06T00:03:47;16.73;;;9.57;;
47545;SDS011;50104;52.002;4.688;2023-04-06T00:08:48;14.77;;;8.93;;
47545;SDS011;50104;52.002;4.688;2023-04-06T00:13:49;16.90;;;9.00;;
47545;SDS011;50104;52.002;4.688;2023-04-06T00:18:50;14.27;;;9.57;;
47545;SDS011;50104;52.002;4.688;2023-04-06T00:23:51;14.50;;;8.13;;
47545;SDS011;50104;52.002;4.688;2023-04-06T00:28:52;15.77;;;8.50;;
47545;SDS011;50104;52.002;4.688;2023-04-06T00:33:53;15.03;;;9.27;;
47545;SDS011;50104;52.002;4.688;2023-04-06T00:38:53;13.83;;;8.40;;
47545;SDS011;50104;52.002;4.688;2023-04-06T00:43:55;13.93;;;7.67;;
47545;SDS011;50104;52.002;4.688;2023-04-06T00:48:56;13.00;;;8.17;;
47545;SDS011;50104;52.002;4.688;2023-04-06T00:53:57;14.17;;;8.33;;
47545;SDS011;50104;52.002;4.688;2023-04-06T00:58:58;13.00;;;8.80;;
47545;SDS011;50104;52.002;4.688;2023-04-06T01:03:59;12.33;;;8.03;;
47545;SDS011;50104;52.002;4.688;2023-04-06T01:09:00;14.77;;;8.43;;
47545;SDS011;50104;52.002;4.688;2023-04-06T01:14:01;13.53;;;8.00;;
47545;SDS011;50104;52.002;4.688;2023-04-06T01:19:07;14.30;;;8.20;;
47545;SDS011;50104;52.002;4.688;2023-04-06T01:24:10;13.73;;;9.03;;
47545;SDS011;50104;52.002;4.688;2023-04-06T01:29:11;16.50;;;8.90;;
47545;SDS011;50104;52.002;4.688;2023-04-06T01:34:12;15.17;;;8.73;;
47545;SDS011;50104;52.002;4.688;2023-04-06T01:39:12;13.80;;;9.27;;
47545;SDS011;50104;52.002;4.688;2023-04-06T01:44:16;14.03;;;9.20;;
47545;SDS011;50104;52.002;4.688;2023-04-06T01:49:18;12.33;;;8.17;;
47545;SDS011;50104;52.002;4.688;2023-04-06T01:54:19;15.90;;;8.83;;
47545;SDS011;50104;52.002;4.688;2023-04-06T01:59:20;17.05;;;9.73;;
47545;SDS011;50104;52.002;4.688;2023-04-06T02:04:21;12.47;;;8.50;;
47545;SDS011;50104;52.002;4.688;2023-04-06T02:09:22;14.07;;;9.50;;
47545;SDS011;50104;52.002;4.688;2023-04-06T02:14:26;16.53;;;10.57;;
47545;SDS011;50104;52.002;4.688;2023-04-06T02:19:27;16.17;;;10.60;;
47545;SDS011;50104;52.002;4.688;2023-04-06T02:24:28;14.33;;;9.37;;
47545;SDS011;50104;52.002;4.688;2023-04-06T02:29:29;13.73;;;9.10;;
47545;SDS011;50104;52.002;4.688;2023-04-06T02:34:30;14.57;;;10.10;;
47545;SDS011;50104;52.002;4.688;2023-04-06T02:39:31;12.30;;;8.63;;
47545;SDS011;50104;52.002;4.688;2023-04-06T02:44:31;16.60;;;9.00;;
47545;SDS011;50104;52.002;4.688;2023-04-06T02:49:32;16.03;;;10.27;;
47545;SDS011;50104;52.002;4.688;2023-04-06T02:54:33;14.47;;;10.10;;
47545;SDS011;50104;52.002;4.688;2023-04-06T02:59:34;15.77;;;10.13;;
47545;SDS011;50104;52.002;4.688;2023-04-06T03:04:35;17.83;;;10.63;;
47545;SDS011;50104;52.002;4.688;2023-04-06T03:09:39;15.20;;;10.30;;
47545;SDS011;50104;52.002;4.688;2023-04-06T03:14:40;15.27;;;10.43;;
47545;SDS011;50104;52.002;4.688;2023-04-06T03:19:41;15.60;;;9.90;;
47545;SDS011;50104;52.002;4.688;2023-04-06T03:24:42;17.37;;;9.83;;
47545;SDS011;50104;52.002;4.688;2023-04-06T03:29:43;17.13;;;11.03;;
47545;SDS011;50104;52.002;4.688;2023-04-06T03:34:43;15.87;;;9.93;;
47545;SDS011;50104;52.002;4.688;2023-04-06T03:39:44;15.93;;;11.27;;
47545;SDS011;50104;52.002;4.688;2023-04-06T03:44:45;18.27;;;10.47;;
47545;SDS011;50104;52.002;4.688;2023-04-06T03:49:46;20.40;;;11.97;;
47545;SDS011;50104;52.002;4.688;2023-04-06T03:54:47;18.20;;;11.17;;
47545;SDS011;50104;52.002;4.688;2023-04-06T03:59:48;17.43;;;11.10;;
47545;SDS011;50104;52.002;4.688;2023-04-06T04:04:49;19.87;;;11.60;;
47545;SDS011;50104;52.002;4.688;2023-04-06T04:09:49;18.13;;;11.27;;
47545;SDS011;50104;52.002;4.688;2023-04-06T04:14:50;21.70;;;11.43;;
47545;SDS011;50104;52.002;4.688;2023-04-06T04:19:51;17.73;;;11.83;;
47545;SDS011;50104;52.002;4.688;2023-04-06T04:24:52;18.20;;;12.37;;
47545;SDS011;50104;52.002;4.688;2023-04-06T04:29:53;18.67;;;12.53;;
47545;SDS011;50104;52.002;4.688;2023-04-06T04:34:54;18.73;;;12.17;;
47545;SDS011;50104;52.002;4.688;2023-04-06T04:39:55;20.40;;;11.67;;
47545;SDS011;50104;52.002;4.688;2023-04-06T04:44:56;16.63;;;11.63;;
47545;SDS011;50104;52.002;4.688;2023-04-06T04:49:56;21.90;;;12.53;;
47545;SDS011;50104;52.002;4.688;2023-04-06T04:54:57;20.47;;;12.47;;
47545;SDS011;50104;52.002;4.688;2023-04-06T04:59:58;23.07;;;12.97;;
47545;SDS011;50104;52.002;4.688;2023-04-06T05:04:59;22.63;;;12.27;;
47545;SDS011;50104;52.002;4.688;2023-04-06T05:10:00;22.97;;;13.77;;
47545;SDS011;50104;52.002;4.688;2023-04-06T05:15:01;23.25;;;14.13;;
47545;SDS011;50104;52.002;4.688;2023-04-06T05:20:03;22.47;;;13.10;;
47545;SDS011;50104;52.002;4.688;2023-04-06T05:25:05;19.97;;;12.93;;
47545;SDS011;50104;52.002;4.688;2023-04-06T05:30:07;25.07;;;13.43;;
47545;SDS011;50104;52.002;4.688;2023-04-06T05:35:08;23.35;;;12.50;;
47545;SDS011;50104;52.002;4.688;2023-04-06T05:40:10;24.47;;;14.20;;
47545;SDS011;50104;52.002;4.688;2023-04-06T05:45:11;23.97;;;13.93;;
47545;SDS011;50104;52.002;4.688;2023-04-06T05:50:17;22.50;;;12.70;;
47545;SDS011;50104;52.002;4.688;2023-04-06T05:55:17;24.97;;;12.33;;
47545;SDS011;50104;52.002;4.688;2023-04-06T06:00:18;21.70;;;12.90;;
47545;SDS011;50104;52.002;4.688;2023-04-06T06:05:20;23.10;;;12.83;;
47545;SDS011;50104;52.002;4.688;2023-04-06T06:10:21;27.30;;;13.27;;
47545;SDS011;50104;52.002;4.688;2023-04-06T06:15:22;24.13;;;13.23;;
47545;SDS011;50104;52.002;4.688;2023-04-06T06:20:23;23.73;;;13.30;;
47545;SDS011;50104;52.002;4.688;2023-04-06T06:25:24;23.80;;;13.33;;
47545;SDS011;50104;52.002;4.688;2023-04-06T06:30:25;26.70;;;13.97;;
47545;SDS011;50104;52.002;4.688;2023-04-06T06:35:26;21.60;;;13.23;;
47545;SDS011;50104;52.002;4.688;2023-04-06T06:40:27;28.10;;;13.80;;
47545;SDS011;50104;52.002;4.688;2023-04-06T06:45:28;25.27;;;13.63;;
47545;SDS011;50104;52.002;4.688;2023-04-06T06:50:29;21.40;;;12.43;;
47545;SDS011;50104;52.002;4.688;2023-04-06T06:55:31;22.00;;;13.17;;
47545;SDS011;50104;52.002;4.688;2023-04-06T07:00:32;23.20;;;13.52;;
47545;SDS011;50104;52.002;4.688;2023-04-06T07:05:33;24.83;;;13.20;;
47545;SDS011;50104;52.002;4.688;2023-04-06T07:10:34;24.35;;;14.00;;
47545;SDS011;50104;52.002;4.688;2023-04-06T07:15:35;24.23;;;14.13;;
47545;SDS011;50104;52.002;4.688;2023-04-06T07:20:37;26.13;;;14.95;;
47545;SDS011;50104;52.002;4.688;2023-04-06T07:25:38;27.20;;;15.85;;
47545;SDS011;50104;52.002;4.688;2023-04-06T07:30:40;27.13;;;15.05;;
47545;SDS011;50104;52.002;4.688;2023-04-06T07:35:41;30.50;;;15.10;;
47545;SDS011;50104;52.002;4.688;2023-04-06T07:40:42;26.70;;;15.95;;
47545;SDS011;50104;52.002;4.688;2023-04-06T07:45:43;30.30;;;17.58;;
47545;SDS011;50104;52.002;4.688;2023-04-06T07:50:44;27.38;;;16.52;;
47545;SDS011;50104;52.002;4.688;2023-04-06T07:55:45;28.92;;;16.70;;
47545;SDS011;50104;52.002;4.688;2023-04-06T08:00:46;28.58;;;16.25;;
47545;SDS011;50104;52.002;4.688;2023-04-06T08:05:47;30.33;;;16.00;;
47545;SDS011;50104;52.002;4.688;2023-04-06T08:10:48;28.88;;;17.10;;
47545;SDS011;50104;52.002;4.688;2023-04-06T08:15:49;31.65;;;17.02;;
47545;SDS011;50104;52.002;4.688;2023-04-06T08:20:50;34.53;;;17.88;;
47545;SDS011;50104;52.002;4.688;2023-04-06T08:25:51;33.58;;;17.45;;
47545;SDS011;50104;52.002;4.688;2023-04-06T08:30:54;28.60;;;17.88;;
47545;SDS011;50104;52.002;4.688;2023-04-06T08:35:55;30.75;;;18.63;;
47545;SDS011;50104;52.002;4.688;2023-04-06T08:40:56;35.80;;;18.58;;
47545;SDS011;50104;52.002;4.688;2023-04-06T08:45:57;28.58;;;17.20;;
47545;SDS011;50104;52.002;4.688;2023-04-06T08:50:59;34.17;;;17.65;;
47545;SDS011;50104;52.002;4.688;2023-04-06T08:56:01;28.52;;;16.67;;
47545;SDS011;50104;52.002;4.688;2023-04-06T09:01:06;27.00;;;14.35;;
47545;SDS011;50104;52.002;4.688;2023-04-06T09:06:09;22.55;;;11.32;;
47545;SDS011;50104;52.002;4.688;2023-04-06T09:11:11;18.40;;;10.82;;
47545;SDS011;50104;52.002;4.688;2023-04-06T09:16:12;15.88;;;9.25;;
47545;SDS011;50104;52.002;4.688;2023-04-06T09:21:16;18.58;;;9.57;;
47545;SDS011;50104;52.002;4.688;2023-04-06T09:26:18;17.45;;;10.70;;
47545;SDS011;50104;52.002;4.688;2023-04-06T09:31:27;12.63;;;8.32;;
47545;SDS011;50104;52.002;4.688;2023-04-06T09:36:33;12.88;;;8.27;;
47545;SDS011;50104;52.002;4.688;2023-04-06T09:41:41;9.27;;;5.38;;
47545;SDS011;50104;52.002;4.688;2023-04-06T09:46:42;9.23;;;6.57;;
47545;SDS011;50104;52.002;4.688;2023-04-06T09:51:46;11.95;;;6.72;;
47545;SDS011;50104;52.002;4.688;2023-04-06T10:02:02;9.98;;;6.63;;
47545;SDS011;50104;52.002;4.688;2023-04-06T10:07:06;9.70;;;6.95;;
47545;SDS011;50104;52.002;4.688;2023-04-06T10:12:08;9.75;;;6.18;;
47545;SDS011;50104;52.002;4.688;2023-04-06T10:17:10;10.02;;;6.07;;
47545;SDS011;50104;52.002;4.688;2023-04-06T10:22:12;10.85;;;6.65;;
47545;SDS011;50104;52.002;4.688;2023-04-06T10:27:29;9.55;;;6.88;;
47545;SDS011;50104;52.002;4.688;2023-04-06T10:32:34;9.98;;;7.00;;
47545;SDS011;50104;52.002;4.688;2023-04-06T10:37:48;8.30;;;6.53;;
47545;SDS011;50104;52.002;4.688;2023-04-06T10:42:53;9.07;;;6.93;;
47545;SDS011;50104;52.002;4.688;2023-04-06T10:47:56;6.90;;;6.03;;
47545;SDS011;50104;52.002;4.688;2023-04-06T10:52:58;8.88;;;6.60;;
47545;SDS011;50104;52.002;4.688;2023-04-06T10:58:00;9.25;;;6.75;;
47545;SDS011;50104;52.002;4.688;2023-04-06T11:03:01;8.60;;;6.80;;
47545;SDS011;50104;52.002;4.688;2023-04-06T11:08:02;10.45;;;6.65;;
47545;SDS011;50104;52.002;4.688;2023-04-06T11:13:03;11.65;;;5.70;;
47545;SDS011;50104;52.002;4.688;2023-04-06T11:18:05;10.48;;;7.07;;
47545;SDS011;50104;52.002;4.688;2023-04-06T11:23:06;10.80;;;7.05;;
47545;SDS011;50104;52.002;4.688;2023-04-06T11:28:07;10.50;;;7.53;;
47545;SDS011;50104;52.002;4.688;2023-04-06T11:33:08;11.38;;;8.75;;
47545;SDS011;50104;52.002;4.688;2023-04-06T11:38:09;13.10;;;8.20;;
47545;SDS011;50104;52.002;4.688;2023-04-06T11:43:11;9.77;;;7.38;;
47545;SDS011;50104;52.002;4.688;2023-04-06T11:48:18;11.93;;;8.05;;
47545;SDS011;50104;52.002;4.688;2023-04-06T11:53:20;10.38;;;7.13;;
47545;SDS011;50104;52.002;4.688;2023-04-06T11:58:21;11.48;;;7.53;;
47545;SDS011;50104;52.002;4.688;2023-04-06T12:03:22;10.32;;;8.02;;
47545;SDS011;50104;52.002;4.688;2023-04-06T12:08:23;10.25;;;7.47;;
47545;SDS011;50104;52.002;4.688;2023-04-06T12:13:26;11.32;;;7.22;;
47545;SDS011;50104;52.002;4.688;2023-04-06T12:18:27;10.98;;;7.05;;
47545;SDS011;50104;52.002;4.688;2023-04-06T12:23:30;12.07;;;7.07;;
47545;SDS011;50104;52.002;4.688;2023-04-06T12:28:31;9.32;;;6.70;;
47545;SDS011;50104;52.002;4.688;2023-04-06T12:33:32;10.45;;;7.25;;
47545;SDS011;50104;52.002;4.688;2023-04-06T12:38:33;11.50;;;7.85;;
47545;SDS011;50104;52.002;4.688;2023-04-06T12:43:35;9.93;;;6.70;;
47545;SDS011;50104;52.002;4.688;2023-04-06T12:48:36;11.18;;;7.38;;
47545;SDS011;50104;52.002;4.688;2023-04-06T12:53:37;11.30;;;7.95;;
47545;SDS011;50104;52.002;4.688;2023-04-06T12:58:39;11.65;;;7.18;;
47545;SDS011;50104;52.002;4.688;2023-04-06T13:03:42;9.77;;;7.10;;
47545;SDS011;50104;52.002;4.688;2023-04-06T13:08:43;11.43;;;7.68;;
47545;SDS011;50104;52.002;4.688;2023-04-06T13:13:44;11.50;;;8.32;;
47545;SDS011;50104;52.002;4.688;2023-04-06T13:18:45;12.45;;;8.45;;
47545;SDS011;50104;52.002;4.688;2023-04-06T13:23:46;10.48;;;7.57;;
47545;SDS011;50104;52.002;4.688;2023-04-06T13:28:47;10.18;;;6.78;;
47545;SDS011;50104;52.002;4.688;2023-04-06T13:33:48;12.48;;;7.40;;
47545;SDS011;50104;52.002;4.688;2023-04-06T13:38:49;9.25;;;7.22;;
47545;SDS011;50104;52.002;4.688;2023-04-06T13:43:50;10.15;;;7.07;;
47545;SDS011;50104;52.002;4.688;2023-04-06T13:48:51;14.05;;;7.97;;
47545;SDS011;50104;52.002;4.688;2023-04-06T13:53:52;8.68;;;7.10;;
47545;SDS011;50104;52.002;4.688;2023-04-06T13:58:54;10.88;;;8.10;;
47545;SDS011;50104;52.002;4.688;2023-04-06T14:03:56;11.90;;;8.02;;
47545;SDS011;50104;52.002;4.688;2023-04-06T14:08:57;10.52;;;8.23;;
47545;SDS011;50104;52.002;4.688;2023-04-06T14:13:59;8.90;;;6.85;;
47545;SDS011;50104;52.002;4.688;2023-04-06T14:19:01;9.18;;;7.25;;
47545;SDS011;50104;52.002;4.688;2023-04-06T14:24:01;8.93;;;6.78;;
47545;SDS011;50104;52.002;4.688;2023-04-06T14:29:03;10.13;;;7.95;;
47545;SDS011;50104;52.002;4.688;2023-04-06T14:34:05;10.20;;;7.43;;
47545;SDS011;50104;52.002;4.688;2023-04-06T14:39:06;10.45;;;7.60;;
47545;SDS011;50104;52.002;4.688;2023-04-06T14:44:07;8.85;;;7.10;;
47545;SDS011;50104;52.002;4.688;2023-04-06T14:49:12;8.63;;;7.22;;
47545;SDS011;50104;52.002;4.688;2023-04-06T14:54:13;8.15;;;7.10;;
47545;SDS011;50104;52.002;4.688;2023-04-06T14:59:13;8.23;;;7.20;;
47545;SDS011;50104;52.002;4.688;2023-04-06T15:04:14;8.48;;;6.72;;
47545;SDS011;50104;52.002;4.688;2023-04-06T15:09:15;7.65;;;6.72;;
47545;SDS011;50104;52.002;4.688;2023-04-06T15:14:16;9.32;;;7.05;;
47545;SDS011;50104;52.002;4.688;2023-04-06T15:19:17;8.38;;;6.57;;
47545;SDS011;50104;52.002;4.688;2023-04-06T15:24:21;7.45;;;6.50;;
47545;SDS011;50104;52.002;4.688;2023-04-06T15:29:22;10.95;;;7.05;;
47545;SDS011;50104;52.002;4.688;2023-04-06T15:34:22;7.97;;;6.88;;
47545;SDS011;50104;52.002;4.688;2023-04-06T15:39:23;8.10;;;7.13;;
47545;SDS011;50104;52.002;4.688;2023-04-06T15:44:24;8.60;;;7.13;;
47545;SDS011;50104;52.002;4.688;2023-04-06T15:49:25;8.73;;;7.40;;
47545;SDS011;50104;52.002;4.688;2023-04-06T15:54:26;9.57;;;7.18;;
47545;SDS011;50104;52.002;4.688;2023-04-06T15:59:27;10.05;;;7.93;;
47545;SDS011;50104;52.002;4.688;2023-04-06T16:04:28;9.23;;;7.47;;
47545;SDS011;50104;52.002;4.688;2023-04-06T16:09:29;9.05;;;7.57;;
47545;SDS011;50104;52.002;4.688;2023-04-06T16:14:30;9.27;;;7.45;;
47545;SDS011;50104;52.002;4.688;2023-04-06T16:19:30;8.43;;;7.35;;
47545;SDS011;50104;52.002;4.688;2023-04-06T16:24:31;9.18;;;7.47;;
47545;SDS011;50104;52.002;4.688;2023-04-06T16:29:33;9.55;;;7.72;;
47545;SDS011;50104;52.002;4.688;2023-04-06T16:34:34;8.60;;;7.32;;
47545;SDS011;50104;52.002;4.688;2023-04-06T16:39:36;8.02;;;7.13;;
47545;SDS011;50104;52.002;4.688;2023-04-06T16:44:37;9.85;;;7.55;;
47545;SDS011;50104;52.002;4.688;2023-04-06T16:49:38;8.77;;;7.10;;
47545;SDS011;50104;52.002;4.688;2023-04-06T16:54:39;9.95;;;8.13;;
47545;SDS011;50104;52.002;4.688;2023-04-06T16:59:40;8.73;;;7.32;;
47545;SDS011;50104;52.002;4.688;2023-04-06T17:04:40;10.60;;;8.40;;
47545;SDS011;50104;52.002;4.688;2023-04-06T17:09:42;9.73;;;8.45;;
47545;SDS011;50104;52.002;4.688;2023-04-06T17:14:43;10.63;;;8.80;;
47545;SDS011;50104;52.002;4.688;2023-04-06T17:19:44;12.57;;;10.20;;
47545;SDS011;50104;52.002;4.688;2023-04-06T17:24:45;11.45;;;9.65;;
47545;SDS011;50104;52.002;4.688;2023-04-06T17:29:48;11.30;;;9.55;;
47545;SDS011;50104;52.002;4.688;2023-04-06T17:34:49;13.07;;;10.35;;
47545;SDS011;50104;52.002;4.688;2023-04-06T17:39:50;13.00;;;10.90;;
47545;SDS011;50104;52.002;4.688;2023-04-06T17:44:51;14.35;;;10.95;;
47545;SDS011;50104;52.002;4.688;2023-04-06T17:49:52;15.98;;;12.38;;
47545;SDS011;50104;52.002;4.688;2023-04-06T17:54:53;16.77;;;13.00;;
47545;SDS011;50104;52.002;4.688;2023-04-06T17:59:55;16.65;;;12.95;;
47545;SDS011;50104;52.002;4.688;2023-04-06T18:04:56;16.55;;;12.88;;
47545;SDS011;50104;52.002;4.688;2023-04-06T18:09:58;18.45;;;13.30;;
47545;SDS011;50104;52.002;4.688;2023-04-06T18:15:00;18.00;;;14.52;;
47545;SDS011;50104;52.002;4.688;2023-04-06T18:20:02;19.00;;;14.68;;
47545;SDS011;50104;52.002;4.688;2023-04-06T18:25:03;20.33;;;15.05;;
47545;SDS011;50104;52.002;4.688;2023-04-06T18:30:05;19.55;;;14.85;;
47545;SDS011;50104;52.002;4.688;2023-04-06T18:35:07;20.45;;;15.02;;
47545;SDS011;50104;52.002;4.688;2023-04-06T18:40:28;21.63;;;15.70;;
47545;SDS011;50104;52.002;4.688;2023-04-06T18:45:34;20.98;;;16.20;;
47545;SDS011;50104;52.002;4.688;2023-04-06T18:50:37;26.88;;;17.85;;
47545;SDS011;50104;52.002;4.688;2023-04-06T18:55:39;23.33;;;17.30;;
47545;SDS011;50104;52.002;4.688;2023-04-06T19:00:40;21.55;;;15.65;;
47545;SDS011;50104;52.002;4.688;2023-04-06T19:05:41;19.65;;;13.90;;
47545;SDS011;50104;52.002;4.688;2023-04-06T19:10:42;21.05;;;13.55;;
47545;SDS011;50104;52.002;4.688;2023-04-06T19:15:43;16.23;;;11.90;;
47545;SDS011;50104;52.002;4.688;2023-04-06T19:20:44;17.58;;;11.45;;
47545;SDS011;50104;52.002;4.688;2023-04-06T19:25:45;13.25;;;9.57;;
47545;SDS011;50104;52.002;4.688;2023-04-06T19:30:46;12.30;;;8.98;;
47545;SDS011;50104;52.002;4.688;2023-04-06T19:35:47;11.45;;;7.40;;
47545;SDS011;50104;52.002;4.688;2023-04-06T19:40:48;14.60;;;8.65;;
47545;SDS011;50104;52.002;4.688;2023-04-06T19:45:49;15.98;;;7.53;;
47545;SDS011;50104;52.002;4.688;2023-04-06T19:50:54;12.57;;;6.55;;
47545;SDS011;50104;52.002;4.688;2023-04-06T19:55:55;13.82;;;6.25;;
47545;SDS011;50104;52.002;4.688;2023-04-06T20:00:56;8.57;;;5.10;;
47545;SDS011;50104;52.002;4.688;2023-04-06T20:05:56;6.72;;;4.60;;
47545;SDS011;50104;52.002;4.688;2023-04-06T20:11:01;10.27;;;4.80;;
47545;SDS011;50104;52.002;4.688;2023-04-06T20:16:03;7.88;;;3.75;;
47545;SDS011;50104;52.002;4.688;2023-04-06T20:21:04;13.90;;;4.65;;
47545;SDS011;50104;52.002;4.688;2023-04-06T20:26:08;7.50;;;3.72;;
47545;SDS011;50104;52.002;4.688;2023-04-06T20:31:09;6.78;;;3.83;;
47545;SDS011;50104;52.002;4.688;2023-04-06T20:36:11;8.02;;;4.10;;
47545;SDS011;50104;52.002;4.688;2023-04-06T20:41:12;7.97;;;4.03;;
47545;SDS011;50104;52.002;4.688;2023-04-06T20:46:16;11.35;;;3.83;;
47545;SDS011;50104;52.002;4.688;2023-04-06T20:51:20;9.75;;;3.60;;
47545;SDS011;50104;52.002;4.688;2023-04-06T20:56:24;10.07;;;4.07;;
47545;SDS011;50104;52.002;4.688;2023-04-06T21:01:25;10.10;;;3.92;;
47545;SDS011;50104;52.002;4.688;2023-04-06T21:06:28;6.57;;;3.17;;
47545;SDS011;50104;52.002;4.688;2023-04-06T21:11:31;6.68;;;2.90;;
47545;SDS011;50104;52.002;4.688;2023-04-06T21:16:32;11.30;;;3.35;;
47545;SDS011;50104;52.002;4.688;2023-04-06T21:21:33;8.25;;;3.25;;
47545;SDS011;50104;52.002;4.688;2023-04-06T21:26:34;7.85;;;3.03;;
47545;SDS011;50104;52.002;4.688;2023-04-06T21:31:36;5.50;;;2.72;;
47545;SDS011;50104;52.002;4.688;2023-04-06T21:36:40;6.55;;;3.38;;
47545;SDS011;50104;52.002;4.688;2023-04-06T21:41:41;7.63;;;2.70;;
47545;SDS011;50104;52.002;4.688;2023-04-06T21:46:42;8.20;;;3.53;;
47545;SDS011;50104;52.002;4.688;2023-04-06T21:51:43;9.85;;;2.72;;
47545;SDS011;50104;52.002;4.688;2023-04-06T21:56:44;7.15;;;2.60;;
47545;SDS011;50104;52.002;4.688;2023-04-06T22:01:45;5.47;;;2.65;;
47545;SDS011;50104;52.002;4.688;2023-04-06T22:06:46;7.90;;;3.28;;
47545;SDS011;50104;52.002;4.688;2023-04-06T22:11:46;7.63;;;3.30;;
47545;SDS011;50104;52.002;4.688;2023-04-06T22:16:48;9.43;;;3.30;;
47545;SDS011;50104;52.002;4.688;2023-04-06T22:21:49;10.50;;;2.83;;
47545;SDS011;50104;52.002;4.688;2023-04-06T22:26:50;7.97;;;2.85;;
47545;SDS011;50104;52.002;4.688;2023-04-06T22:31:51;9.20;;;3.42;;
47545;SDS011;50104;52.002;4.688;2023-04-06T22:36:51;9.18;;;3.38;;
47545;SDS011;50104;52.002;4.688;2023-04-06T22:41:52;7.28;;;3.20;;
47545;SDS011;50104;52.002;4.688;2023-04-06T22:46:53;3.78;;;2.13;;
47545;SDS011;50104;52.002;4.688;2023-04-06T22:51:54;8.15;;;2.65;;
47545;SDS011;50104;52.002;4.688;2023-04-06T22:56:55;10.68;;;3.22;;
47545;SDS011;50104;52.002;4.688;2023-04-06T23:01:56;6.43;;;3.03;;
47545;SDS011;50104;52.002;4.688;2023-04-06T23:06:57;6.43;;;2.75;;
47545;SDS011;50104;52.002;4.688;2023-04-06T23:11:58;3.50;;;2.22;;
47545;SDS011;50104;52.002;4.688;2023-04-06T23:16:58;5.90;;;3.15;;
47545;SDS011;50104;52.002;4.688;2023-04-06T23:22:00;4.82;;;2.47;;
47545;SDS011;50104;52.002;4.688;2023-04-06T23:27:01;5.90;;;2.70;;
47545;SDS011;50104;52.002;4.688;2023-04-06T23:32:02;6.40;;;2.30;;
47545;SDS011;50104;52.002;4.688;2023-04-06T23:37:03;4.18;;;2.45;;
47545;SDS011;50104;52.002;4.688;2023-04-06T23:42:04;8.27;;;3.28;;
47545;SDS011;50104;52.002;4.688;2023-04-06T23:47:05;9.48;;;3.55;;
47545;SDS011;50104;52.002;4.688;2023-04-06T23:52:06;5.90;;;3.13;;
47545;SDS011;50104;52.002;4.688;2023-04-06T23:57:06;6.72;;;3.28;;
